sensor_id;sensor_type;location;lat;lon;timestamp;pressure;altitude;pressure_sealevel;temperature;humidity
42621;BME280;28252;53.336;-6.298;2024-02-14T00:00:00;99789.13;;;19.96;79.34
42621;BME280;28252;53.336;-6.298;2024-02-14T00:00:32;99786.63;;;19.94;79.14
42621;BME280;28252;53.336;-6.298;2024-02-14T00:01:07;99792.84;;;19.95;79.52
42621;BME280;28252;53.336;-6.298;2024-02-14T00:01:43;99791.19;;;19.94;79.36
42621;BME280;28252;53.336;-6.298;2024-02-14T00:02:18;99788.31;;;19.95;80.07
42621;BME280;28252;53.336;-6.298;2024-02-14T00:02:55;99791.00;;;19.95;80.12
42621;BME280;28252;53.336;-6.298;2024-02-14T00:03:28;99789.13;;;19.96;78.91
42621;BME280;28252;53.336;-6.298;2024-02-14T00:04:01;99785.59;;;19.95;79.90
42621;BME280;28252;53.336;-6.298;2024-02-14T00:04:35;99791.66;;;19.98;79.51
42621;BME280;28252;53.336;-6.298;2024-02-14T00:05:06;99787.91;;;19.99;79.65
42621;BME280;28252;53.336;-6.298;2024-02-14T00:05:45;99787.06;;;19.98;79.92
42621;BME280;28252;53.336;-6.298;2024-02-14T00:07:32;99787.91;;;19.99;79.76
42621;BME280;28252;53.336;-6.298;2024-02-14T00:08:08;99792.28;;;20.00;79.55
42621;BME280;28252;53.336;-6.298;2024-02-14T00:08:44;99791.28;;;20.01;79.19
42621;BME280;28252;53.336;-6.298;2024-02-14T00:09:17;99789.59;;;20.00;79.90
42621;BME280;28252;53.336;-6.298;2024-02-14T00:09:54;99778.78;;;20.00;79.58
42621;BME280;28252;53.336;-6.298;2024-02-14T00:10:25;99787.53;;;20.02;78.95
42621;BME280;28252;53.336;-6.298;2024-02-14T00:10:58;99781.28;;;20.01;79.42
42621;BME280;28252;53.336;-6.298;2024-02-14T00:11:32;99786.31;;;20.04;79.58
42621;BME280;28252;53.336;-6.298;2024-02-14T00:12:07;99786.31;;;20.04;79.92
42621;BME280;28252;53.336;-6.298;2024-02-14T00:12:40;99787.97;;;20.05;79.85
42621;BME280;28252;53.336;-6.298;2024-02-14T00:13:11;99787.16;;;20.05;80.12
42621;BME280;28252;53.336;-6.298;2024-02-14T00:13:47;99782.75;;;20.04;79.44
42621;BME280;28252;53.336;-6.298;2024-02-14T00:14:23;99796.94;;;20.06;80.58
42621;BME280;28252;53.336;-6.298;2024-02-14T00:14:56;99779.03;;;20.05;80.73
42621;BME280;28252;53.336;-6.298;2024-02-14T00:15:28;99784.44;;;20.05;80.72
42621;BME280;28252;53.336;-6.298;2024-02-14T00:16:00;99782.56;;;20.05;80.20
42621;BME280;28252;53.336;-6.298;2024-02-14T00:16:34;99782.38;;;20.07;79.46
42621;BME280;28252;53.336;-6.298;2024-02-14T00:17:09;99785.09;;;20.07;80.51
42621;BME280;28252;53.336;-6.298;2024-02-14T00:17:41;99785.09;;;20.07;79.91
42621;BME280;28252;53.336;-6.298;2024-02-14T00:18:19;99785.91;;;20.07;79.16
42621;BME280;28252;53.336;-6.298;2024-02-14T00:19:01;99786.78;;;20.08;80.00
42621;BME280;28252;53.336;-6.298;2024-02-14T00:19:37;99796.53;;;20.09;79.41
42621;BME280;28252;53.336;-6.298;2024-02-14T00:20:13;99787.59;;;20.08;79.66
42621;BME280;28252;53.336;-6.298;2024-02-14T00:20:44;99790.13;;;20.10;79.41
42621;BME280;28252;53.336;-6.298;2024-02-14T00:21:25;99793.66;;;20.10;80.04
42621;BME280;28252;53.336;-6.298;2024-02-14T00:22:00;99794.50;;;20.11;80.09
42621;BME280;28252;53.336;-6.298;2024-02-14T00:22:34;99784.53;;;20.11;80.31
42621;BME280;28252;53.336;-6.298;2024-02-14T00:23:05;99782.63;;;20.12;80.06
42621;BME280;28252;53.336;-6.298;2024-02-14T00:23:43;99788.03;;;20.12;80.28
42621;BME280;28252;53.336;-6.298;2024-02-14T00:24:14;99784.34;;;20.13;80.02
42621;BME280;28252;53.336;-6.298;2024-02-14T00:24:53;99780.56;;;20.14;79.86
42621;BME280;28252;53.336;-6.298;2024-02-14T00:25:24;99782.44;;;20.13;79.99
42621;BME280;28252;53.336;-6.298;2024-02-14T00:25:57;99776.84;;;20.15;80.21
42621;BME280;28252;53.336;-6.298;2024-02-14T00:26:35;99775.16;;;20.14;79.70
42621;BME280;28252;53.336;-6.298;2024-02-14T00:27:07;99778.72;;;20.14;79.86
42621;BME280;28252;53.336;-6.298;2024-02-14T00:27:41;99779.56;;;20.15;79.78
42621;BME280;28252;53.336;-6.298;2024-02-14T00:28:13;99779.56;;;20.15;79.78
42621;BME280;28252;53.336;-6.298;2024-02-14T00:28:47;99782.63;;;20.12;80.37
42621;BME280;28252;53.336;-6.298;2024-02-14T00:29:23;99779.75;;;20.13;80.01
42621;BME280;28252;53.336;-6.298;2024-02-14T00:29:59;99782.25;;;20.15;79.66
42621;BME280;28252;53.336;-6.298;2024-02-14T00:30:34;99783.94;;;20.16;79.93
42621;BME280;28252;53.336;-6.298;2024-02-14T00:31:09;99777.69;;;20.15;81.02
42621;BME280;28252;53.336;-6.298;2024-02-14T00:31:45;99782.25;;;20.15;81.49
42621;BME280;28252;53.336;-6.298;2024-02-14T00:32:19;99778.53;;;20.16;80.74
42621;BME280;28252;53.336;-6.298;2024-02-14T00:32:52;99778.53;;;20.16;81.16
42621;BME280;28252;53.336;-6.298;2024-02-14T00:33:28;99782.06;;;20.17;81.63
42621;BME280;28252;53.336;-6.298;2024-02-14T00:33:59;99781.25;;;20.16;81.20
42621;BME280;28252;53.336;-6.298;2024-02-14T00:34:30;99774.97;;;20.15;81.40
42621;BME280;28252;53.336;-6.298;2024-02-14T00:35:07;99782.06;;;20.17;81.13
42621;BME280;28252;53.336;-6.298;2024-02-14T00:35:38;99777.50;;;20.17;80.93
42621;BME280;28252;53.336;-6.298;2024-02-14T00:37:36;99777.50;;;20.17;80.62
42621;BME280;28252;53.336;-6.298;2024-02-14T00:38:10;99779.38;;;20.17;81.32
42621;BME280;28252;53.336;-6.298;2024-02-14T00:38:42;99778.53;;;20.16;81.04
42621;BME280;28252;53.336;-6.298;2024-02-14T00:39:13;99772.09;;;20.17;81.72
42621;BME280;28252;53.336;-6.298;2024-02-14T00:39:49;99775.44;;;20.19;80.92
42621;BME280;28252;53.336;-6.298;2024-02-14T00:40:22;99776.47;;;20.18;81.36
42621;BME280;28252;53.336;-6.298;2024-02-14T00:40:54;99778.34;;;20.18;81.38
42621;BME280;28252;53.336;-6.298;2024-02-14T00:41:30;99777.31;;;20.19;81.66
42621;BME280;28252;53.336;-6.298;2024-02-14T00:42:06;99777.94;;;20.21;81.59
42621;BME280;28252;53.336;-6.298;2024-02-14T00:42:42;99776.47;;;20.18;81.27
42621;BME280;28252;53.336;-6.298;2024-02-14T00:43:20;99778.13;;;20.19;81.15
42621;BME280;28252;53.336;-6.298;2024-02-14T00:43:53;99771.44;;;20.15;81.53
42621;BME280;28252;53.336;-6.298;2024-02-14T00:44:24;99772.09;;;20.17;80.67
42621;BME280;28252;53.336;-6.298;2024-02-14T00:44:55;99771.06;;;20.18;81.87
42621;BME280;28252;53.336;-6.298;2024-02-14T00:45:27;99774.78;;;20.17;80.18
42621;BME280;28252;53.336;-6.298;2024-02-14T00:46:00;99773.13;;;20.16;81.48
42621;BME280;28252;53.336;-6.298;2024-02-14T00:46:34;99774.78;;;20.17;81.61
42621;BME280;28252;53.336;-6.298;2024-02-14T00:47:07;99766.69;;;20.17;81.38
42621;BME280;28252;53.336;-6.298;2024-02-14T00:47:43;99773.97;;;20.17;82.44
42621;BME280;28252;53.336;-6.298;2024-02-14T00:48:18;99769.56;;;20.15;82.36
42621;BME280;28252;53.336;-6.298;2024-02-14T00:48:50;99776.22;;;20.13;82.10
42621;BME280;28252;53.336;-6.298;2024-02-14T00:49:23;99771.44;;;20.15;80.94
42621;BME280;28252;53.336;-6.298;2024-02-14T00:50:00;99766.88;;;20.15;81.88
42621;BME280;28252;53.336;-6.298;2024-02-14T00:50:31;99771.44;;;20.15;81.61
42621;BME280;28252;53.336;-6.298;2024-02-14T00:51:04;99772.28;;;20.15;81.88
42621;BME280;28252;53.336;-6.298;2024-02-14T00:51:40;99777.69;;;20.15;81.68
42621;BME280;28252;53.336;-6.298;2024-02-14T00:52:14;99778.53;;;20.16;81.94
42621;BME280;28252;53.336;-6.298;2024-02-14T00:52:47;99775.16;;;20.14;81.22
42621;BME280;28252;53.336;-6.298;2024-02-14T00:53:23;99775.84;;;20.16;81.21
42621;BME280;28252;53.336;-6.298;2024-02-14T00:55:23;99781.25;;;20.16;81.87
42621;BME280;28252;53.336;-6.298;2024-02-14T00:55:54;99789.34;;;20.16;81.74
42621;BME280;28252;53.336;-6.298;2024-02-14T00:56:29;99784.78;;;20.17;81.20
42621;BME280;28252;53.336;-6.298;2024-02-14T00:57:00;99790.19;;;20.17;81.77
42621;BME280;28252;53.336;-6.298;2024-02-14T00:57:32;99789.34;;;20.16;82.12
42621;BME280;28252;53.336;-6.298;2024-02-14T00:58:07;99787.66;;;20.15;81.43
42621;BME280;28252;53.336;-6.298;2024-02-14T00:58:41;99789.34;;;20.16;82.05
42621;BME280;28252;53.336;-6.298;2024-02-14T00:59:15;99791.00;;;20.17;81.59
42621;BME280;28252;53.336;-6.298;2024-02-14T00:59:51;99793.06;;;20.15;82.53
42621;BME280;28252;53.336;-6.298;2024-02-14T01:00:29;99782.25;;;20.15;82.02
42621;BME280;28252;53.336;-6.298;2024-02-14T01:01:01;99787.66;;;20.15;82.00
42621;BME280;28252;53.336;-6.298;2024-02-14T01:01:32;99787.66;;;20.15;82.21
42621;BME280;28252;53.336;-6.298;2024-02-14T01:02:03;99782.44;;;20.13;81.46
42621;BME280;28252;53.336;-6.298;2024-02-14T01:02:35;99786.84;;;20.14;81.69
42621;BME280;28252;53.336;-6.298;2024-02-14T01:03:11;99783.09;;;20.15;81.51
42621;BME280;28252;53.336;-6.298;2024-02-14T01:03:46;99781.25;;;20.16;81.59
42621;BME280;28252;53.336;-6.298;2024-02-14T01:04:24;99786.66;;;20.16;81.76
42621;BME280;28252;53.336;-6.298;2024-02-14T01:04:57;99783.94;;;20.16;81.74
42621;BME280;28252;53.336;-6.298;2024-02-14T01:05:28;99787.66;;;20.15;81.31
42621;BME280;28252;53.336;-6.298;2024-02-14T01:05:59;99787.66;;;20.15;81.75
42621;BME280;28252;53.336;-6.298;2024-02-14T01:06:33;99788.50;;;20.15;81.22
42621;BME280;28252;53.336;-6.298;2024-02-14T01:07:07;99780.19;;;20.17;81.87
42621;BME280;28252;53.336;-6.298;2024-02-14T01:07:42;99792.06;;;20.16;82.01
42621;BME280;28252;53.336;-6.298;2024-02-14T01:08:19;99783.94;;;20.16;81.73
42621;BME280;28252;53.336;-6.298;2024-02-14T01:08:53;99791.00;;;20.17;81.54
42621;BME280;28252;53.336;-6.298;2024-02-14T01:09:26;99782.25;;;20.15;80.74
42621;BME280;28252;53.336;-6.298;2024-02-14T01:10:02;99784.78;;;20.17;81.46
42621;BME280;28252;53.336;-6.298;2024-02-14T01:10:41;99786.66;;;20.16;80.93
42621;BME280;28252;53.336;-6.298;2024-02-14T01:11:12;99787.66;;;20.15;80.81
42621;BME280;28252;53.336;-6.298;2024-02-14T01:11:43;99787.47;;;20.17;81.38
42621;BME280;28252;53.336;-6.298;2024-02-14T01:12:19;99786.84;;;20.14;81.50
42621;BME280;28252;53.336;-6.298;2024-02-14T01:12:52;99791.38;;;20.14;81.59
42621;BME280;28252;53.336;-6.298;2024-02-14T01:13:28;99779.75;;;20.13;81.85
42621;BME280;28252;53.336;-6.298;2024-02-14T01:14:04;99776.03;;;20.14;82.02
42621;BME280;28252;53.336;-6.298;2024-02-14T01:14:39;99785.16;;;20.13;82.20
42621;BME280;28252;53.336;-6.298;2024-02-14T01:15:17;99781.63;;;20.13;81.87
42621;BME280;28252;53.336;-6.298;2024-02-14T01:15:48;99772.66;;;20.12;81.68
42621;BME280;28252;53.336;-6.298;2024-02-14T01:16:31;99781.00;;;20.11;81.39
42621;BME280;28252;53.336;-6.298;2024-02-14T01:17:05;99779.94;;;20.12;81.75
42621;BME280;28252;53.336;-6.298;2024-02-14T01:17:43;99781.81;;;20.11;82.13
42621;BME280;28252;53.336;-6.298;2024-02-14T01:19:20;99784.34;;;20.13;82.15
42621;BME280;28252;53.336;-6.298;2024-02-14T01:19:57;99782.63;;;20.12;81.64
42621;BME280;28252;53.336;-6.298;2024-02-14T01:20:31;99784.34;;;20.13;80.44
42621;BME280;28252;53.336;-6.298;2024-02-14T01:21:09;99782.63;;;20.12;82.11
42621;BME280;28252;53.336;-6.298;2024-02-14T01:21:43;99782.84;;;20.10;81.55
42621;BME280;28252;53.336;-6.298;2024-02-14T01:22:15;99779.94;;;20.12;81.56
42621;BME280;28252;53.336;-6.298;2024-02-14T01:22:53;99778.94;;;20.13;81.82
42621;BME280;28252;53.336;-6.298;2024-02-14T01:23:31;99787.22;;;20.11;82.09
42621;BME280;28252;53.336;-6.298;2024-02-14T01:24:05;99785.53;;;20.10;81.69
42621;BME280;28252;53.336;-6.298;2024-02-14T01:26:03;99780.13;;;20.10;80.82
42621;BME280;28252;53.336;-6.298;2024-02-14T01:26:34;99785.53;;;20.10;80.81
42621;BME280;28252;53.336;-6.298;2024-02-14T01:27:05;99787.41;;;20.10;81.37
42621;BME280;28252;53.336;-6.298;2024-02-14T01:27:39;99788.44;;;20.09;81.88
42621;BME280;28252;53.336;-6.298;2024-02-14T01:28:11;99792.81;;;20.10;82.10
42621;BME280;28252;53.336;-6.298;2024-02-14T01:28:45;99786.78;;;20.08;81.72
42621;BME280;28252;53.336;-6.298;2024-02-14T01:29:16;99784.72;;;20.10;81.57
42621;BME280;28252;53.336;-6.298;2024-02-14T01:29:54;99785.72;;;20.09;81.40
42621;BME280;28252;53.336;-6.298;2024-02-14T01:30:30;99785.91;;;20.07;81.81
42621;BME280;28252;53.336;-6.298;2024-02-14T01:31:06;99788.63;;;20.07;81.36
42621;BME280;28252;53.336;-6.298;2024-02-14T01:31:46;99789.66;;;20.06;81.43
42621;BME280;28252;53.336;-6.298;2024-02-14T01:32:23;99789.84;;;20.05;81.55
42621;BME280;28252;53.336;-6.298;2024-02-14T01:32:56;99790.50;;;20.07;81.95
42621;BME280;28252;53.336;-6.298;2024-02-14T01:33:31;99794.25;;;20.06;82.73
42621;BME280;28252;53.336;-6.298;2024-02-14T01:34:09;99786.13;;;20.06;81.61
42621;BME280;28252;53.336;-6.298;2024-02-14T01:34:42;99783.44;;;20.06;81.58
42621;BME280;28252;53.336;-6.298;2024-02-14T01:35:18;99788.84;;;20.06;81.38
42621;BME280;28252;53.336;-6.298;2024-02-14T01:35:54;99787.16;;;20.05;81.98
42621;BME280;28252;53.336;-6.298;2024-02-14T01:36:28;99783.44;;;20.06;81.55
42621;BME280;28252;53.336;-6.298;2024-02-14T01:37:05;99780.06;;;20.04;82.18
42621;BME280;28252;53.336;-6.298;2024-02-14T01:37:41;99785.47;;;20.04;82.60
42621;BME280;28252;53.336;-6.298;2024-02-14T01:38:18;99789.22;;;20.03;81.57
42621;BME280;28252;53.336;-6.298;2024-02-14T01:38:51;99781.94;;;20.03;81.33
42621;BME280;28252;53.336;-6.298;2024-02-14T01:39:22;99786.50;;;20.03;81.71
42621;BME280;28252;53.336;-6.298;2024-02-14T01:39:56;99791.06;;;20.02;81.48
42621;BME280;28252;53.336;-6.298;2024-02-14T01:40:29;99783.34;;;19.99;81.21
42621;BME280;28252;53.336;-6.298;2024-02-14T01:41:05;99783.16;;;20.01;81.08
42621;BME280;28252;53.336;-6.298;2024-02-14T01:41:37;99788.34;;;20.02;80.86
42621;BME280;28252;53.336;-6.298;2024-02-14T01:42:12;99781.28;;;20.01;80.87
42621;BME280;28252;53.336;-6.298;2024-02-14T01:42:48;99783.81;;;20.03;81.13
42621;BME280;28252;53.336;-6.298;2024-02-14T01:43:20;99787.53;;;20.02;81.29
42621;BME280;28252;53.336;-6.298;2024-02-14T01:43:54;99778.78;;;20.00;81.52
42621;BME280;28252;53.336;-6.298;2024-02-14T01:44:29;99787.91;;;19.99;81.22
42621;BME280;28252;53.336;-6.298;2024-02-14T01:45:03;99774.56;;;19.97;81.32
42621;BME280;28252;53.336;-6.298;2024-02-14T01:45:39;99779.97;;;19.97;81.32
42621;BME280;28252;53.336;-6.298;2024-02-14T01:46:13;99777.50;;;19.95;81.85
42621;BME280;28252;53.336;-6.298;2024-02-14T01:46:48;99779.97;;;19.97;81.90
42621;BME280;28252;53.336;-6.298;2024-02-14T01:47:25;99779.16;;;19.96;81.19
42621;BME280;28252;53.336;-6.298;2024-02-14T01:48:01;99777.50;;;19.95;81.97
42621;BME280;28252;53.336;-6.298;2024-02-14T01:48:33;99777.50;;;19.95;81.87
42621;BME280;28252;53.336;-6.298;2024-02-14T01:49:04;99777.50;;;19.95;81.97
42621;BME280;28252;53.336;-6.298;2024-02-14T01:49:36;99773.09;;;19.94;82.04
42621;BME280;28252;53.336;-6.298;2024-02-14T01:50:08;99770.22;;;19.96;81.67
42621;BME280;28252;53.336;-6.298;2024-02-14T01:50:42;99775.81;;;19.94;81.71
42621;BME280;28252;53.336;-6.298;2024-02-14T01:51:21;99768.72;;;19.93;81.84
42621;BME280;28252;53.336;-6.298;2024-02-14T01:52:01;99774.13;;;19.93;81.77
42621;BME280;28252;53.336;-6.298;2024-02-14T01:52:35;99775.81;;;19.94;81.74
42621;BME280;28252;53.336;-6.298;2024-02-14T01:54:33;99776.19;;;19.91;82.03
42621;BME280;28252;53.336;-6.298;2024-02-14T01:55:04;99776.00;;;19.93;82.01
42621;BME280;28252;53.336;-6.298;2024-02-14T01:55:41;99772.47;;;19.92;81.89
42621;BME280;28252;53.336;-6.298;2024-02-14T01:56:12;99770.78;;;19.91;82.17
42621;BME280;28252;53.336;-6.298;2024-02-14T01:56:43;99774.53;;;19.90;81.97
42621;BME280;28252;53.336;-6.298;2024-02-14T01:57:18;99773.66;;;19.90;82.31
42621;BME280;28252;53.336;-6.298;2024-02-14T01:57:54;99776.56;;;19.88;82.27
42621;BME280;28252;53.336;-6.298;2024-02-14T01:58:26;99769.50;;;19.87;81.93
42621;BME280;28252;53.336;-6.298;2024-02-14T01:58:59;99773.66;;;19.90;82.28
42621;BME280;28252;53.336;-6.298;2024-02-14T01:59:37;99770.13;;;19.89;82.97
42621;BME280;28252;53.336;-6.298;2024-02-14T02:00:08;99765.75;;;19.88;82.65
42621;BME280;28252;53.336;-6.298;2024-02-14T02:00:46;99772.19;;;19.87;82.65
42621;BME280;28252;53.336;-6.298;2024-02-14T02:01:21;99764.91;;;19.88;82.71
42621;BME280;28252;53.336;-6.298;2024-02-14T02:01:56;99764.28;;;19.86;83.26
42621;BME280;28252;53.336;-6.298;2024-02-14T02:02:32;99769.50;;;19.87;83.08
42621;BME280;28252;53.336;-6.298;2024-02-14T02:03:04;99764.91;;;19.88;83.00
42621;BME280;28252;53.336;-6.298;2024-02-14T02:03:40;99762.41;;;19.86;83.11
42621;BME280;28252;53.336;-6.298;2024-02-14T02:04:11;99770.31;;;19.88;82.92
42621;BME280;28252;53.336;-6.298;2024-02-14T02:04:50;99771.34;;;19.87;83.11
42621;BME280;28252;53.336;-6.298;2024-02-14T02:05:24;99767.00;;;19.86;82.90
42621;BME280;28252;53.336;-6.298;2024-02-14T02:05:59;99771.53;;;19.85;83.35
42621;BME280;28252;53.336;-6.298;2024-02-14T02:06:34;99774.03;;;19.87;83.56
42621;BME280;28252;53.336;-6.298;2024-02-14T02:08:09;99775.09;;;19.86;83.78
42621;BME280;28252;53.336;-6.298;2024-02-14T02:08:47;99774.91;;;19.87;83.66
42621;BME280;28252;53.336;-6.298;2024-02-14T02:09:23;99765.31;;;19.85;84.22
42621;BME280;28252;53.336;-6.298;2024-02-14T02:09:59;99780.69;;;19.84;84.01
42621;BME280;28252;53.336;-6.298;2024-02-14T02:10:31;99783.56;;;19.83;83.75
42621;BME280;28252;53.336;-6.298;2024-02-14T02:11:03;99769.88;;;19.84;83.65
42621;BME280;28252;53.336;-6.298;2024-02-14T02:11:50;99768.19;;;19.83;83.71
42621;BME280;28252;53.336;-6.298;2024-02-14T02:12:24;99777.16;;;19.84;83.87
42621;BME280;28252;53.336;-6.298;2024-02-14T02:13:00;99769.88;;;19.84;83.74
42621;BME280;28252;53.336;-6.298;2024-02-14T02:13:31;99778.81;;;19.85;83.68
42621;BME280;28252;53.336;-6.298;2024-02-14T02:14:08;99776.09;;;19.85;83.40
42621;BME280;28252;53.336;-6.298;2024-02-14T02:14:50;99773.41;;;19.85;83.57
42621;BME280;28252;53.336;-6.298;2024-02-14T02:15:24;99775.28;;;19.84;83.79
42621;BME280;28252;53.336;-6.298;2024-02-14T02:15:55;99780.69;;;19.84;83.51
42621;BME280;28252;53.336;-6.298;2024-02-14T02:16:28;99780.69;;;19.84;83.92
42621;BME280;28252;53.336;-6.298;2024-02-14T02:17:00;99775.28;;;19.84;83.63
42621;BME280;28252;53.336;-6.298;2024-02-14T02:17:35;99775.28;;;19.84;83.33
42621;BME280;28252;53.336;-6.298;2024-02-14T02:18:13;99773.59;;;19.83;83.67
42621;BME280;28252;53.336;-6.298;2024-02-14T02:18:46;99778.16;;;19.83;84.18
42621;BME280;28252;53.336;-6.298;2024-02-14T02:19:21;99784.41;;;19.83;84.34
42621;BME280;28252;53.336;-6.298;2024-02-14T02:19:54;99774.44;;;19.84;84.64
42621;BME280;28252;53.336;-6.298;2024-02-14T02:20:28;99773.59;;;19.83;84.95
42621;BME280;28252;53.336;-6.298;2024-02-14T02:21:04;99782.75;;;19.82;84.72
42621;BME280;28252;53.336;-6.298;2024-02-14T02:21:42;99777.34;;;19.82;84.95
42621;BME280;28252;53.336;-6.298;2024-02-14T02:22:21;99773.59;;;19.83;85.19
42621;BME280;28252;53.336;-6.298;2024-02-14T02:22:55;99775.47;;;19.83;84.74
42621;BME280;28252;53.336;-6.298;2024-02-14T02:23:26;99769.25;;;19.82;85.13
42621;BME280;28252;53.336;-6.298;2024-02-14T02:23:59;99768.19;;;19.83;84.78
42621;BME280;28252;53.336;-6.298;2024-02-14T02:24:30;99762.97;;;19.82;84.76
42621;BME280;28252;53.336;-6.298;2024-02-14T02:25:06;99767.53;;;19.81;84.80
42621;BME280;28252;53.336;-6.298;2024-02-14T02:25:40;99766.53;;;19.82;84.81
42621;BME280;28252;53.336;-6.298;2024-02-14T02:26:16;99766.53;;;19.82;84.29
42621;BME280;28252;53.336;-6.298;2024-02-14T02:26:49;99773.59;;;19.83;84.89
42621;BME280;28252;53.336;-6.298;2024-02-14T02:27:27;99768.19;;;19.83;85.44
42621;BME280;28252;53.336;-6.298;2024-02-14T02:27:59;99764.47;;;19.84;85.58
42621;BME280;28252;53.336;-6.298;2024-02-14T02:28:37;99771.75;;;19.84;85.60
42621;BME280;28252;53.336;-6.298;2024-02-14T02:29:14;99776.09;;;19.85;85.81
42621;BME280;28252;53.336;-6.298;2024-02-14T02:29:48;99775.28;;;19.84;86.26
42621;BME280;28252;53.336;-6.298;2024-02-14T02:30:26;99772.56;;;19.84;85.16
42621;BME280;28252;53.336;-6.298;2024-02-14T02:31:00;99770.69;;;19.85;86.38
42621;BME280;28252;53.336;-6.298;2024-02-14T02:31:34;99773.41;;;19.85;86.11
42621;BME280;28252;53.336;-6.298;2024-02-14T02:32:10;99776.09;;;19.85;85.76
42621;BME280;28252;53.336;-6.298;2024-02-14T02:32:44;99771.53;;;19.85;85.02
42621;BME280;28252;53.336;-6.298;2024-02-14T02:33:14;99774.22;;;19.85;85.78
42621;BME280;28252;53.336;-6.298;2024-02-14T02:33:49;99777.78;;;19.86;86.16
42621;BME280;28252;53.336;-6.298;2024-02-14T02:34:20;99779.44;;;19.87;86.07
42621;BME280;28252;53.336;-6.298;2024-02-14T02:34:52;99779.44;;;19.87;85.42
42621;BME280;28252;53.336;-6.298;2024-02-14T02:35:25;99777.59;;;19.87;85.73
42621;BME280;28252;53.336;-6.298;2024-02-14T02:36:06;99775.91;;;19.86;86.39
42621;BME280;28252;53.336;-6.298;2024-02-14T02:36:40;99779.25;;;19.88;85.79
42621;BME280;28252;53.336;-6.298;2024-02-14T02:37:14;99775.72;;;19.88;86.09
42621;BME280;28252;53.336;-6.298;2024-02-14T02:37:53;99777.41;;;19.89;85.58
42621;BME280;28252;53.336;-6.298;2024-02-14T02:38:24;99783.66;;;19.89;85.99
42621;BME280;28252;53.336;-6.298;2024-02-14T02:38:58;99774.72;;;19.89;86.39
42621;BME280;28252;53.336;-6.298;2024-02-14T02:39:35;99775.53;;;19.89;85.04
42621;BME280;28252;53.336;-6.298;2024-02-14T02:40:12;99772.84;;;19.89;85.90
42621;BME280;28252;53.336;-6.298;2024-02-14T02:40:45;99767.44;;;19.89;85.61
42621;BME280;28252;53.336;-6.298;2024-02-14T02:41:16;99775.53;;;19.89;84.83
42621;BME280;28252;53.336;-6.298;2024-02-14T02:41:47;99776.19;;;19.91;86.08
42621;BME280;28252;53.336;-6.298;2024-02-14T02:42:22;99770.97;;;19.90;85.62
42621;BME280;28252;53.336;-6.298;2024-02-14T02:42:58;99777.22;;;19.90;86.35
42621;BME280;28252;53.336;-6.298;2024-02-14T02:43:32;99769.13;;;19.90;86.66
42621;BME280;28252;53.336;-6.298;2024-02-14T02:44:08;99771.81;;;19.90;85.62
42621;BME280;28252;53.336;-6.298;2024-02-14T02:44:39;99776.19;;;19.91;85.70
42621;BME280;28252;53.336;-6.298;2024-02-14T02:45:13;99775.16;;;19.92;85.10
42621;BME280;28252;53.336;-6.298;2024-02-14T02:45:49;99784.28;;;19.91;84.57
42621;BME280;28252;53.336;-6.298;2024-02-14T02:47:56;99776.81;;;19.93;85.24
42621;BME280;28252;53.336;-6.298;2024-02-14T02:48:27;99776.81;;;19.93;85.49
42621;BME280;28252;53.336;-6.298;2024-02-14T02:49:00;99774.13;;;19.93;85.85
42621;BME280;28252;53.336;-6.298;2024-02-14T02:49:37;99775.81;;;19.94;85.68
42621;BME280;28252;53.336;-6.298;2024-02-14T02:50:13;99777.50;;;19.95;85.91
42621;BME280;28252;53.336;-6.298;2024-02-14T02:50:46;99772.91;;;19.96;85.60
42621;BME280;28252;53.336;-6.298;2024-02-14T02:51:25;99780.19;;;19.95;85.27
42621;BME280;28252;53.336;-6.298;2024-02-14T02:52:03;99778.31;;;19.96;84.95
42621;BME280;28252;53.336;-6.298;2024-02-14T02:52:41;99773.75;;;19.96;85.97
42621;BME280;28252;53.336;-6.298;2024-02-14T02:53:15;99769.16;;;19.97;86.39
42621;BME280;28252;53.336;-6.298;2024-02-14T02:53:47;99769.16;;;19.97;86.80
42621;BME280;28252;53.336;-6.298;2024-02-14T02:54:20;99764.63;;;19.98;86.55
42621;BME280;28252;53.336;-6.298;2024-02-14T02:54:56;99768.97;;;19.99;85.93
42621;BME280;28252;53.336;-6.298;2024-02-14T02:55:30;99768.97;;;19.99;86.29
42621;BME280;28252;53.336;-6.298;2024-02-14T02:56:05;99776.25;;;19.98;86.42
42621;BME280;28252;53.336;-6.298;2024-02-14T02:56:39;99773.38;;;20.00;86.07
42621;BME280;28252;53.336;-6.298;2024-02-14T02:57:11;99772.53;;;19.99;86.56
42621;BME280;28252;53.336;-6.298;2024-02-14T02:57:45;99778.78;;;20.00;86.01
42621;BME280;28252;53.336;-6.298;2024-02-14T02:58:21;99772.53;;;19.99;86.27
42621;BME280;28252;53.336;-6.298;2024-02-14T02:58:52;99773.38;;;20.00;85.69
42621;BME280;28252;53.336;-6.298;2024-02-14T02:59:27;99767.97;;;20.00;86.15
42621;BME280;28252;53.336;-6.298;2024-02-14T03:00:03;99773.38;;;20.00;86.48
42621;BME280;28252;53.336;-6.298;2024-02-14T03:00:40;99769.66;;;20.01;86.47
42621;BME280;28252;53.336;-6.298;2024-02-14T03:01:11;99771.50;;;20.00;86.26
42621;BME280;28252;53.336;-6.298;2024-02-14T03:01:49;99770.47;;;20.01;86.79
42621;BME280;28252;53.336;-6.298;2024-02-14T03:02:23;99763.38;;;20.00;86.25
42621;BME280;28252;53.336;-6.298;2024-02-14T03:02:56;99764.25;;;20.01;86.08
42621;BME280;28252;53.336;-6.298;2024-02-14T03:03:30;99765.91;;;20.02;87.40
42621;BME280;28252;53.336;-6.298;2024-02-14T03:04:03;99765.91;;;20.02;86.71
42621;BME280;28252;53.336;-6.298;2024-02-14T03:04:39;99771.31;;;20.02;86.29
42621;BME280;28252;53.336;-6.298;2024-02-14T03:05:15;99761.31;;;20.02;86.70
42621;BME280;28252;53.336;-6.298;2024-02-14T03:05:49;99759.47;;;20.03;86.93
42621;BME280;28252;53.336;-6.298;2024-02-14T03:06:23;99763.84;;;20.04;86.74
42621;BME280;28252;53.336;-6.298;2024-02-14T03:06:56;99762.19;;;20.03;86.89
42621;BME280;28252;53.336;-6.298;2024-02-14T03:07:33;99759.28;;;20.04;86.42
42621;BME280;28252;53.336;-6.298;2024-02-14T03:08:10;99762.19;;;20.03;86.01
42621;BME280;28252;53.336;-6.298;2024-02-14T03:08:44;99765.53;;;20.05;85.58
42621;BME280;28252;53.336;-6.298;2024-02-14T03:09:15;99760.94;;;20.05;85.66
42621;BME280;28252;53.336;-6.298;2024-02-14T03:09:51;99760.13;;;20.05;86.49
42621;BME280;28252;53.336;-6.298;2024-02-14T03:10:27;99761.81;;;20.06;86.88